Time;durP1;ratioP1;P1;durP2;ratioP2;P2;SDS_P1;SDS_P2;PMS_P1;PMS_P2;Temp;Humidity;BMP_temperature;BMP_pressure;BME280_temperature;BME280_humidity;BME280_pressure;Samples;Min_cycle;Max_cycle;Signal;HPM_P1;HPM_P2
2021/06/13 00:00:17;;;;;;;;;;;;;;;18.96;43.33;101586.22;4980950;28;96739;-85
2021/06/13 00:02:43;;;;;;;;;;;;;;;18.60;43.62;101591.81;4980156;28;99809;-85
2021/06/13 00:05:12;;;;;;;;;;;;;;;18.40;43.96;101594.69;4967329;28;101930;-85
2021/06/13 00:07:39;;;;;;;;;;;;;;;18.55;43.82;101598.34;4984422;28;96636;-84
2021/06/13 00:10:06;;;;;;;;;;;;;;;18.39;44.04;101590.28;4989511;28;96882;-85
2021/06/13 00:12:32;;;;;;;;;;;;;;;18.49;43.95;101588.84;4986648;28;100094;-85
2021/06/13 00:14:58;;;;;;;;;;;;;;;18.21;43.89;101592.16;4983110;28;100575;-84
2021/06/13 00:17:24;;;;;;;;;;;;;;;18.46;43.00;101594.34;4987777;28;96621;-83
2021/06/13 00:19:50;;;;;;;;;;;;;;;18.12;43.50;101608.69;4991117;28;96816;-84
2021/06/13 00:22:17;;;;;;;;;;;;;;;18.14;43.30;101612.16;4989918;28;96667;-83
2021/06/13 00:24:43;;;;;;;;;;;;;;;18.74;42.07;101614.28;4992148;28;96546;-84
2021/06/13 00:27:09;;;;;;;;;;;;;;;18.01;43.10;101612.88;4992389;28;96537;-83
2021/06/13 00:29:38;;;;;;;;;;;;;;;18.37;42.08;101620.75;4989033;28;96797;-84
2021/06/13 00:32:04;;;;;;;;;;;;;;;18.28;41.98;101614.09;4988076;28;97181;-83
2021/06/13 00:34:30;;;;;;;;;;;;;;;18.38;41.67;101619.81;4986564;28;98627;-84
2021/06/13 00:36:56;;;;;;;;;;;;;;;18.14;41.94;101624.66;4979759;28;96996;-85
2021/06/13 00:39:26;;;;;;;;;;;;;;;18.67;40.66;101613.75;4977526;28;96861;-85
2021/06/13 00:41:52;;;;;;;;;;;;;;;18.35;41.11;101617.28;4980656;28;99317;-84
2021/06/13 00:44:18;;;;;;;;;;;;;;;18.33;41.21;101620.03;4974176;28;99680;-85
2021/06/13 00:46:44;;;;;;;;;;;;;;;18.03;41.16;101622.56;4980930;28;96886;-85
2021/06/13 00:49:12;;;;;;;;;;;;;;;18.08;41.04;101631.19;4975721;28;96903;-84
2021/06/13 00:51:37;;;;;;;;;;;;;;;18.56;40.03;101622.38;4966554;28;99258;-83
2021/06/13 00:54:04;;;;;;;;;;;;;;;19.14;38.83;101628.97;4980633;28;101559;-83
2021/06/13 00:56:32;;;;;;;;;;;;;;;18.43;40.00;101625.78;4980267;28;96487;-84
2021/06/13 00:58:58;;;;;;;;;;;;;;;18.38;39.71;101631.34;4978699;28;96797;-84
2021/06/13 01:01:24;;;;;;;;;;;;;;;18.46;39.79;101637.16;4978989;28;99944;-83
2021/06/13 01:03:50;;;;;;;;;;;;;;;18.80;39.17;101624.63;4979287;28;97748;-84
2021/06/13 01:06:20;;;;;;;;;;;;;;;18.46;39.18;101631.81;4976396;28;95927;-83
2021/06/13 01:08:48;;;;;;;;;;;;;;;18.12;40.14;101638.09;4966078;28;96620;-85
2021/06/13 01:11:18;;;;;;;;;;;;;;;17.72;40.99;101644.66;4969044;28;101174;-84
2021/06/13 01:13:53;;;;;;;;;;;;;;;17.92;40.66;101641.81;4961572;28;98192;-85
2021/06/13 01:16:24;;;;;;;;;;;;;;;17.64;41.52;101662.03;4962540;28;97332;-84
2021/06/13 01:18:54;;;;;;;;;;;;;;;17.84;40.99;101654.75;4950608;28;96899;-84
2021/06/13 01:21:22;;;;;;;;;;;;;;;17.95;40.89;101651.50;4964774;28;100981;-84
2021/06/13 01:24:03;;;;;;;;;;;;;;;18.32;40.55;101653.97;4960209;28;99992;-84
2021/06/13 01:26:43;;;;;;;;;;;;;;;18.46;40.33;101655.91;4960818;28;96888;-84
2021/06/13 01:29:11;;;;;;;;;;;;;;;18.45;40.68;101662.19;4960086;28;96905;-84
2021/06/13 01:31:38;;;;;;;;;;;;;;;18.19;41.26;101666.25;4959823;28;99163;-84
2021/06/13 01:34:05;;;;;;;;;;;;;;;17.84;42.22;101660.09;4962371;28;98018;-83
2021/06/13 01:36:33;;;;;;;;;;;;;;;17.71;42.99;101660.78;4965975;28;97198;-84
2021/06/13 01:39:00;;;;;;;;;;;;;;;18.09;42.08;101661.47;4961177;28;96908;-83
2021/06/13 01:41:30;;;;;;;;;;;;;;;17.62;43.33;101671.94;4962392;28;102238;-85
2021/06/13 01:43:58;;;;;;;;;;;;;;;17.54;43.26;101662.44;4959957;28;99158;-84
2021/06/13 01:46:26;;;;;;;;;;;;;;;17.55;43.29;101668.66;4966780;28;96951;-85
2021/06/13 01:48:53;;;;;;;;;;;;;;;17.30;43.52;101657.47;4959850;28;97028;-84
2021/06/13 01:51:19;;;;;;;;;;;;;;;17.60;42.98;101665.75;4959216;28;98481;-84
2021/06/13 01:53:46;;;;;;;;;;;;;;;17.45;43.15;101662.94;4960193;28;98084;-84
2021/06/13 01:56:13;;;;;;;;;;;;;;;17.22;43.81;101670.31;4941993;28;96833;-84
2021/06/13 01:58:41;;;;;;;;;;;;;;;17.48;43.42;101677.91;4963256;28;96979;-83
2021/06/13 02:01:15;;;;;;;;;;;;;;;17.20;43.53;101681.06;4958393;28;99662;-84
2021/06/13 02:03:45;;;;;;;;;;;;;;;17.13;43.73;101677.00;4955787;28;99437;-84
2021/06/13 02:06:11;;;;;;;;;;;;;;;17.53;43.00;101678.56;4955434;28;98741;-84
2021/06/13 02:08:39;;;;;;;;;;;;;;;17.52;42.84;101677.69;4958231;28;97211;-84
2021/06/13 02:11:05;;;;;;;;;;;;;;;17.43;42.98;101679.97;4961810;28;97956;-85
2021/06/13 02:13:32;;;;;;;;;;;;;;;17.72;42.29;101687.41;4963257;28;99260;-84
2021/06/13 02:15:59;;;;;;;;;;;;;;;17.65;42.52;101680.69;4961807;28;97498;-84
2021/06/13 02:18:25;;;;;;;;;;;;;;;17.92;42.03;101684.59;4960882;28;96847;-84
2021/06/13 02:20:53;;;;;;;;;;;;;;;17.21;43.26;101685.47;4959553;28;98899;-84
2021/06/13 02:23:19;;;;;;;;;;;;;;;17.65;42.47;101691.38;4961218;28;100431;-84
2021/06/13 02:25:44;;;;;;;;;;;;;;;17.58;42.62;101707.75;4962501;28;96809;-84
2021/06/13 02:28:17;;;;;;;;;;;;;;;17.40;43.00;101697.00;4965633;28;96621;-84
2021/06/13 02:30:45;;;;;;;;;;;;;;;17.20;43.24;101685.56;4965819;28;101902;-84
2021/06/13 02:33:11;;;;;;;;;;;;;;;17.29;43.48;101695.78;4962216;28;98888;-84
2021/06/13 02:35:39;;;;;;;;;;;;;;;17.52;42.76;101704.41;4961291;28;96818;-86
2021/06/13 02:38:07;;;;;;;;;;;;;;;17.42;43.02;101691.59;4961978;28;96845;-84
2021/06/13 02:40:33;;;;;;;;;;;;;;;17.65;42.65;101712.75;4960328;28;100184;-84
2021/06/13 02:42:59;;;;;;;;;;;;;;;17.89;42.25;101716.84;4961686;28;96919;-84
2021/06/13 02:45:25;;;;;;;;;;;;;;;17.96;42.08;101716.53;4961791;28;96720;-84
2021/06/13 02:47:51;;;;;;;;;;;;;;;17.18;43.70;101714.16;4962614;28;96693;-84
2021/06/13 02:50:19;;;;;;;;;;;;;;;16.33;45.95;101717.13;4989636;28;100985;-84
2021/06/13 02:52:47;;;;;;;;;;;;;;;16.90;44.71;101715.44;4987148;28;98122;-84
2021/06/13 02:55:19;;;;;;;;;;;;;;;16.87;44.66;101715.56;4983139;28;96557;-83
2021/06/13 02:57:49;;;;;;;;;;;;;;;16.92;44.68;101736.72;4997909;28;96757;-84
2021/06/13 03:00:18;;;;;;;;;;;;;;;17.49;43.56;101741.13;4990733;28;98110;-83
2021/06/13 03:02:45;;;;;;;;;;;;;;;17.59;43.31;101739.72;4989292;28;100627;-82
2021/06/13 03:05:12;;;;;;;;;;;;;;;17.45;43.67;101751.09;5007633;28;96429;-84
2021/06/13 03:07:38;;;;;;;;;;;;;;;17.11;44.19;101743.81;5000866;28;96231;-85
2021/06/13 03:10:07;;;;;;;;;;;;;;;17.28;44.10;101750.16;4993565;28;97083;-84
2021/06/13 03:12:34;;;;;;;;;;;;;;;17.53;43.36;101751.56;4983333;28;99550;-83
2021/06/13 03:15:01;;;;;;;;;;;;;;;17.46;43.76;101751.94;4993920;28;97780;-85
2021/06/13 03:17:29;;;;;;;;;;;;;;;17.05;44.63;101765.47;4985795;28;96758;-84
2021/06/13 03:19:55;;;;;;;;;;;;;;;17.17;44.49;101761.34;4983748;28;100929;-84
2021/06/13 03:22:22;;;;;;;;;;;;;;;17.27;44.46;101769.78;4984136;28;100863;-84
2021/06/13 03:24:50;;;;;;;;;;;;;;;17.55;43.85;101775.56;4989139;28;96892;-84
2021/06/13 03:27:16;;;;;;;;;;;;;;;17.27;44.17;101769.78;4979233;28;96763;-83
2021/06/13 03:29:45;;;;;;;;;;;;;;;17.87;43.23;101780.22;4979103;28;101533;-83
2021/06/13 03:32:12;;;;;;;;;;;;;;;17.58;43.90;101782.56;4983748;28;99300;-84
2021/06/13 03:34:38;;;;;;;;;;;;;;;17.64;43.76;101787.66;4996675;28;96780;-83
2021/06/13 03:37:06;;;;;;;;;;;;;;;17.72;43.55;101778.28;4998160;28;96608;-83
2021/06/13 03:39:33;;;;;;;;;;;;;;;17.58;43.99;101780.78;4988086;28;98502;-83
2021/06/13 03:42:00;;;;;;;;;;;;;;;16.96;45.51;101799.72;4989259;28;96865;-83
2021/06/13 03:44:27;;;;;;;;;;;;;;;17.22;45.50;101788.72;4985601;28;97700;-83
2021/06/13 03:46:56;;;;;;;;;;;;;;;17.15;45.54;101787.25;4989165;28;96817;-83
2021/06/13 03:49:23;;;;;;;;;;;;;;;16.86;46.35;101801.94;5000433;28;100492;-83
2021/06/13 03:51:53;;;;;;;;;;;;;;;17.51;45.04;101811.38;4974005;28;97753;-84
2021/06/13 03:54:19;;;;;;;;;;;;;;;17.53;44.56;101796.13;4952948;28;96926;-84
2021/06/13 03:56:48;;;;;;;;;;;;;;;18.16;43.39;101799.31;4961124;28;96953;-84
2021/06/13 03:59:17;;;;;;;;;;;;;;;17.89;43.93;101804.22;4977134;28;98179;-84
2021/06/13 04:01:44;;;;;;;;;;;;;;;17.73;44.37;101806.75;4977889;28;99649;-84
2021/06/13 04:04:15;;;;;;;;;;;;;;;18.01;43.75;101808.97;4959059;28;96829;-84
2021/06/13 04:06:42;;;;;;;;;;;;;;;18.12;43.55;101811.97;4966094;28;96758;-84
2021/06/13 04:09:21;;;;;;;;;;;;;;;17.94;43.85;101807.53;4974429;28;99209;-84
2021/06/13 04:11:51;;;;;;;;;;;;;;;17.56;44.52;101814.72;4943152;28;97797;-84
2021/06/13 04:14:19;;;;;;;;;;;;;;;17.94;43.86;101818.22;4971974;28;96651;-83
2021/06/13 04:16:46;;;;;;;;;;;;;;;18.06;43.65;101809.59;4969426;28;96761;-83
2021/06/13 04:19:16;;;;;;;;;;;;;;;18.02;43.58;101817.84;4980188;28;98177;-84
2021/06/13 04:21:44;;;;;;;;;;;;;;;18.12;43.23;101814.63;4960241;28;99773;-83
2021/06/13 04:24:12;;;;;;;;;;;;;;;18.20;43.21;101816.94;4969375;28;96833;-83
2021/06/13 04:26:39;;;;;;;;;;;;;;;17.86;43.99;101815.06;4974349;28;96643;-83
2021/06/13 04:29:05;;;;;;;;;;;;;;;18.16;43.31;101815.34;4991003;28;100129;-85
2021/06/13 04:31:32;;;;;;;;;;;;;;;17.69;44.46;101818.56;4989914;28;99136;-84
2021/06/13 04:33:59;;;;;;;;;;;;;;;17.83;43.89;101821.44;4987378;28;96669;-83
2021/06/13 04:36:27;;;;;;;;;;;;;;;18.31;42.97;101819.94;4988802;28;96152;-83
2021/06/13 04:38:53;;;;;;;;;;;;;;;17.96;43.94;101835.06;4992902;28;99313;-83
2021/06/13 04:41:21;;;;;;;;;;;;;;;18.29;42.94;101832.53;4986847;28;97996;-84
2021/06/13 04:43:47;;;;;;;;;;;;;;;18.18;43.00;101825.03;4981915;28;96690;-83
2021/06/13 04:46:20;;;;;;;;;;;;;;;17.47;44.82;101837.38;4984552;28;96795;-84
2021/06/13 04:48:47;;;;;;;;;;;;;;;17.39;45.26;101828.84;4988247;28;98791;-81
2021/06/13 04:51:17;;;;;;;;;;;;;;;17.38;45.26;101831.63;4969062;28;98023;-84
2021/06/13 04:53:53;;;;;;;;;;;;;;;18.06;43.92;101846.16;4974405;28;96823;-83
2021/06/13 04:56:24;;;;;;;;;;;;;;;17.21;45.48;101842.19;4983590;28;96044;-84
2021/06/13 04:58:51;;;;;;;;;;;;;;;17.82;44.08;101843.75;4976082;28;100700;-83
2021/06/13 05:01:17;;;;;;;;;;;;;;;17.36;45.02;101838.81;4971908;28;98738;-84
2021/06/13 05:03:44;;;;;;;;;;;;;;;17.62;44.83;101848.31;4958359;28;96558;-83
2021/06/13 05:06:11;;;;;;;;;;;;;;;17.67;44.57;101843.63;4971776;28;96797;-84
2021/06/13 05:08:38;;;;;;;;;;;;;;;17.82;44.13;101843.75;4971670;28;99856;-83
2021/06/13 05:11:05;;;;;;;;;;;;;;;17.63;44.81;101842.91;4965388;28;96925;-83
2021/06/13 05:13:32;;;;;;;;;;;;;;;17.76;44.55;101846.72;4961817;28;97154;-81
2021/06/13 05:15:59;;;;;;;;;;;;;;;17.98;44.06;101849.25;4963596;28;96555;-83
2021/06/13 05:18:27;;;;;;;;;;;;;;;17.61;44.79;101860.81;4940148;28;98736;-83
2021/06/13 05:20:54;;;;;;;;;;;;;;;18.02;44.04;101858.84;4955254;28;97903;-84
2021/06/13 05:23:21;;;;;;;;;;;;;;;18.20;43.66;101857.06;4948097;28;96690;-83
2021/06/13 05:25:48;;;;;;;;;;;;;;;18.52;42.94;101861.66;4958765;28;97168;-85
2021/06/13 05:28:16;;;;;;;;;;;;;;;18.47;42.86;101869.06;4977046;28;98217;-84
2021/06/13 05:30:43;;;;;;;;;;;;;;;18.15;43.55;101867.13;4961992;28;99168;-84
2021/06/13 05:33:10;;;;;;;;;;;;;;;17.91;44.14;101858.50;4966940;28;97948;-84
2021/06/13 05:35:37;;;;;;;;;;;;;;;17.63;44.64;101866.97;4957975;28;97026;-83
2021/06/13 05:38:03;;;;;;;;;;;;;;;17.92;43.92;101868.22;4964650;28;101326;-85
2021/06/13 05:40:30;;;;;;;;;;;;;;;17.80;44.41;101864.34;4957828;28;98756;-82
2021/06/13 05:42:57;;;;;;;;;;;;;;;18.21;43.63;101873.03;5032909;22;98036;-84
2021/06/13 05:45:29;;;;;;;;;;;;;;;18.40;43.02;101875.66;5013348;28;96815;-84
2021/06/13 05:47:55;;;;;;;;;;;;;;;18.64;42.52;101881.63;5007307;28;98121;-83
2021/06/13 05:50:23;;;;;;;;;;;;;;;19.14;41.21;101892.38;5017760;28;98607;-84
2021/06/13 05:52:50;;;;;;;;;;;;;;;19.46;41.07;101888.84;5015460;28;96812;-83
2021/06/13 05:55:17;;;;;;;;;;;;;;;18.96;41.42;101898.72;5015756;28;96518;-85
2021/06/13 05:57:44;;;;;;;;;;;;;;;19.44;40.73;101901.44;5017661;28;101511;-85
2021/06/13 06:00:12;;;;;;;;;;;;;;;17.88;44.01;101894.25;5002773;28;100895;-84
2021/06/13 06:02:40;;;;;;;;;;;;;;;18.42;42.80;101892.50;5023507;28;96715;-85
2021/06/13 06:05:08;;;;;;;;;;;;;;;18.52;42.63;101903.59;5018338;28;96866;-82
2021/06/13 06:07:34;;;;;;;;;;;;;;;18.97;41.97;101911.16;5015181;28;99357;-83
2021/06/13 06:10:01;;;;;;;;;;;;;;;18.93;42.23;101906.88;5019832;28;97012;-83
2021/06/13 06:12:28;;;;;;;;;;;;;;;18.87;42.08;101916.09;5017156;28;96519;-83
2021/06/13 06:14:54;;;;;;;;;;;;;;;18.77;42.48;101916.69;5029743;28;96654;-84
2021/06/13 06:17:21;;;;;;;;;;;;;;;19.23;41.33;101924.00;5031882;28;99786;-83
2021/06/13 06:19:49;;;;;;;;;;;;;;;19.14;41.33;101919.16;5021823;28;101262;-83
2021/06/13 06:22:15;;;;;;;;;;;;;;;19.29;41.05;101933.56;5025833;28;96432;-85
2021/06/13 06:24:42;;;;;;;;;;;;;;;19.00;41.53;101922.56;5033046;28;96676;-85
2021/06/13 06:27:08;;;;;;;;;;;;;;;19.33;40.95;101927.09;5028954;28;100048;-82
2021/06/13 06:29:35;;;;;;;;;;;;;;;19.66;40.08;101936.03;5035124;28;99935;-84
2021/06/13 06:32:02;;;;;;;;;;;;;;;18.74;42.32;101932.88;5031624;28;96703;-83
2021/06/13 06:34:28;;;;;;;;;;;;;;;18.85;42.11;101922.47;5022175;28;96791;-83
2021/06/13 06:36:56;;;;;;;;;;;;;;;18.52;42.60;101925.88;5020807;28;99932;-83
2021/06/13 06:39:22;;;;;;;;;;;;;;;19.18;41.67;101931.44;5007195;28;101328;-84
2021/06/13 06:41:49;;;;;;;;;;;;;;;18.89;41.73;101932.09;5018813;28;96907;-83
2021/06/13 06:44:16;;;;;;;;;;;;;;;19.39;40.66;101927.63;5008456;28;96770;-83
2021/06/13 06:46:43;;;;;;;;;;;;;;;19.92;39.60;101928.34;5013331;28;98274;-83
2021/06/13 06:49:10;;;;;;;;;;;;;;;19.35;40.79;101934.13;5018467;28;98935;-84
2021/06/13 06:51:37;;;;;;;;;;;;;;;19.69;39.64;101938.53;5013326;28;98564;-84
2021/06/13 06:54:06;;;;;;;;;;;;;;;19.65;39.91;101936.97;5014796;28;96796;-84
2021/06/13 06:56:33;;;;;;;;;;;;;;;19.55;40.22;101935.75;5015000;28;100158;-84
2021/06/13 06:59:00;;;;;;;;;;;;;;;18.99;41.33;101944.06;5019887;28;100494;-85
2021/06/13 07:01:27;;;;;;;;;;;;;;;19.38;40.32;101941.97;5014653;28;96961;-84
2021/06/13 07:03:53;;;;;;;;;;;;;;;20.12;39.38;101945.06;5017307;28;96821;-83
2021/06/13 07:06:20;;;;;;;;;;;;;;;19.84;39.67;101947.56;5014275;28;101269;-85
2021/06/13 07:08:46;;;;;;;;;;;;;;;20.45;38.53;101949.50;5019258;28;99142;-84
2021/06/13 07:11:19;;;;;;;;;;;;;;;20.38;38.16;101948.13;5016045;28;97118;-84
2021/06/13 07:13:45;;;;;;;;;;;;;;;20.89;37.06;101954.94;5021124;28;96773;-85
2021/06/13 07:16:12;;;;;;;;;;;;;;;20.55;37.25;101950.69;5019302;28;100682;-84
2021/06/13 07:18:38;;;;;;;;;;;;;;;20.49;37.77;101951.91;5011829;28;99102;-82
2021/06/13 07:21:05;;;;;;;;;;;;;;;20.48;37.53;101943.97;5009152;28;96977;-81
2021/06/13 07:23:32;;;;;;;;;;;;;;;20.58;37.34;101937.09;5009822;28;97154;-82
2021/06/13 07:25:58;;;;;;;;;;;;;;;20.14;38.22;101953.91;5033945;28;101299;-85
2021/06/13 07:28:40;;;;;;;;;;;;;;;20.15;38.29;101947.56;5029139;28;100005;-84
2021/06/13 07:31:08;;;;;;;;;;;;;;;20.91;36.58;101955.72;5013742;28;96757;-84
2021/06/13 07:33:34;;;;;;;;;;;;;;;20.77;36.82;101951.16;5018218;28;96802;-83
2021/06/13 07:36:01;;;;;;;;;;;;;;;19.94;37.82;101962.22;5024476;28;98251;-84
2021/06/13 07:38:27;;;;;;;;;;;;;;;20.75;36.49;101955.75;5005365;28;99521;-84
2021/06/13 07:40:54;;;;;;;;;;;;;;;20.63;36.34;101957.34;5014554;28;96679;-84
2021/06/13 07:43:21;;;;;;;;;;;;;;;20.58;36.49;101956.75;4979167;28;96952;-83
2021/06/13 07:45:47;;;;;;;;;;;;;;;20.50;36.93;101971.56;4976674;28;98927;-84
2021/06/13 07:48:15;;;;;;;;;;;;;;;20.30;36.74;101975.34;4980379;28;98107;-84
2021/06/13 07:50:42;;;;;;;;;;;;;;;20.05;37.46;101981.25;4977061;28;97845;-84
2021/06/13 07:53:09;;;;;;;;;;;;;;;20.16;37.16;101975.28;4970884;28;96785;-83
2021/06/13 07:55:44;;;;;;;;;;;;;;;20.38;36.81;101986.56;4999636;28;98216;-84
2021/06/13 07:58:11;;;;;;;;;;;;;;;20.07;37.62;101986.53;4999308;28;99859;-84
2021/06/13 08:00:40;;;;;;;;;;;;;;;20.47;36.84;101982.50;4990077;28;96759;-85
2021/06/13 08:03:07;;;;;;;;;;;;;;;19.58;38.25;101985.66;4963313;28;97060;-85
2021/06/13 08:05:36;;;;;;;;;;;;;;;19.84;38.05;101979.75;4987606;28;98913;-84
2021/06/13 08:08:06;;;;;;;;;;;;;;;20.69;36.85;101985.66;4997781;28;99743;-85
2021/06/13 08:10:34;;;;;;;;;;;;;;;20.44;36.54;101986.22;4987847;28;97065;-85
2021/06/13 08:13:01;;;;;;;;;;;;;;;20.79;36.36;101986.88;4982357;28;96831;-85
2021/06/13 08:15:27;;;;;;;;;;;;;;;19.81;38.16;102002.25;4983123;28;97042;-85
2021/06/13 08:17:55;;;;;;;;;;;;;;;20.48;36.88;102003.03;4988677;28;96943;-86
2021/06/13 08:20:22;;;;;;;;;;;;;;;20.19;37.08;102008.19;4982533;28;98709;-86
2021/06/13 08:22:50;;;;;;;;;;;;;;;20.99;35.95;102007.19;4981994;28;96832;-85
2021/06/13 08:25:16;;;;;;;;;;;;;;;21.35;35.44;101996.06;4979555;28;101266;-85
2021/06/13 08:27:43;;;;;;;;;;;;;;;21.34;35.08;102010.47;4975819;28;100043;-84
2021/06/13 08:30:16;;;;;;;;;;;;;;;21.44;34.88;102000.91;4995374;28;95827;-83
2021/06/13 08:32:43;;;;;;;;;;;;;;;22.06;34.08;102002.38;4990167;28;96655;-83
2021/06/13 08:35:16;;;;;;;;;;;;;;;21.89;33.88;102002.56;4999294;28;98841;-85
2021/06/13 08:37:43;;;;;;;;;;;;;;;20.94;36.13;102012.81;4994722;28;101428;-85
2021/06/13 08:40:13;;;;;;;;;;;;;;;22.37;33.75;102014.75;4996224;28;96699;-85
2021/06/13 08:42:42;;;;;;;;;;;;;;;22.10;34.36;102024.59;5001805;28;96068;-84
2021/06/13 08:45:17;;;;;;;;;;;;;;;22.89;33.31;102024.81;5001239;28;99267;-84
2021/06/13 08:47:48;;;;;;;;;;;;;;;22.84;33.33;102021.56;4996884;28;99144;-85
2021/06/13 08:50:15;;;;;;;;;;;;;;;22.12;34.68;102030.75;4988163;28;96662;-85
2021/06/13 08:55:29;;;;;;;;;;;;;;;21.69;35.59;102044.16;5009769;28;98546;-84
2021/06/13 08:57:56;;;;;;;;;;;;;;;21.17;36.84;102040.19;4977127;28;99255;-84
2021/06/13 09:00:25;;;;;;;;;;;;;;;21.47;36.80;102041.91;4986837;28;96839;-85
2021/06/13 09:02:52;;;;;;;;;;;;;;;19.61;39.25;102042.66;4963360;28;97040;-85
2021/06/13 09:05:19;;;;;;;;;;;;;;;20.44;38.21;102049.78;4979784;28;98173;-83
2021/06/13 09:07:58;;;;;;;;;;;;;;;20.23;39.07;102047.31;4987129;28;101331;-84
2021/06/13 09:10:27;;;;;;;;;;;;;;;20.88;37.70;102058.84;4982188;28;97072;-84
2021/06/13 09:13:08;;;;;;;;;;;;;;;21.15;37.20;102058.19;4971069;28;96735;-85
2021/06/13 09:15:36;;;;;;;;;;;;;;;20.99;37.22;102056.44;4978291;28;100225;-84
2021/06/13 09:20:46;;;;;;;;;;;;;;;20.93;37.20;102059.47;4977076;28;97037;-84
2021/06/13 09:23:14;;;;;;;;;;;;;;;20.01;39.44;102062.00;4967286;28;97419;-84
2021/06/13 09:25:43;;;;;;;;;;;;;;;20.08;40.07;102063.41;4970108;28;101642;-84
2021/06/13 09:28:15;;;;;;;;;;;;;;;20.42;40.05;102065.97;4975110;28;100549;-85
2021/06/13 09:30:43;;;;;;;;;;;;;;;20.15;41.04;102075.53;4976609;28;97801;-83
2021/06/13 09:35:56;;;;;;;;;;;;;;;19.88;41.81;102076.06;4982103;28;98492;-84
2021/06/13 09:38:24;;;;;;;;;;;;;;;20.05;41.83;102085.00;4990138;28;98028;-83
2021/06/13 09:43:48;;;;;;;;;;;;;;;20.30;42.49;102091.66;4982684;28;97799;-84
2021/06/13 09:46:23;;;;;;;;;;;;;;;19.99;42.37;102091.59;4972380;28;119404;-84
2021/06/13 09:48:50;;;;;;;;;;;;;;;20.35;40.65;102095.94;4985469;28;98177;-84
2021/06/13 09:51:20;;;;;;;;;;;;;;;19.99;41.66;102093.41;4984996;28;96841;-83
2021/06/13 09:53:47;;;;;;;;;;;;;;;20.27;40.84;102086.47;4991170;28;96770;-83
2021/06/13 09:56:18;;;;;;;;;;;;;;;20.61;40.27;102090.00;4993877;28;99951;-85
2021/06/13 09:58:52;;;;;;;;;;;;;;;20.76;39.75;102083.72;4971479;28;98040;-83
2021/06/13 10:01:22;;;;;;;;;;;;;;;20.24;40.08;102093.81;4985007;28;96856;-84
2021/06/13 10:03:49;;;;;;;;;;;;;;;20.84;38.89;102092.22;4972723;28;97039;-84
2021/06/13 10:06:24;;;;;;;;;;;;;;;21.22;38.28;102081.97;4982959;28;97834;-86
2021/06/13 10:08:51;;;;;;;;;;;;;;;21.65;37.28;102077.59;4975361;28;100752;-85
2021/06/13 10:11:26;;;;;;;;;;;;;;;21.78;37.09;102080.41;4981982;28;96868;-84
2021/06/13 10:14:02;;;;;;;;;;;;;;;21.84;36.73;102074.63;4989520;28;96930;-85
2021/06/13 10:16:40;;;;;;;;;;;;;;;21.98;36.55;102081.88;4978709;28;103215;-85
2021/06/13 10:19:08;;;;;;;;;;;;;;;21.74;36.98;102074.31;4963235;28;97801;-84
2021/06/13 10:21:36;;;;;;;;;;;;;;;21.47;37.35;102078.69;4977965;28;96658;-85
2021/06/13 10:24:05;;;;;;;;;;;;;;;21.35;36.92;102082.97;4973926;28;96943;-82
2021/06/13 10:26:31;;;;;;;;;;;;;;;22.10;35.57;102086.50;4979861;28;100660;-82
2021/06/13 10:29:01;;;;;;;;;;;;;;;21.84;35.09;102080.88;4975993;28;101197;-82
2021/06/13 10:31:28;;;;;;;;;;;;;;;21.68;35.77;102074.69;4973579;28;97125;-81
2021/06/13 10:33:55;;;;;;;;;;;;;;;21.59;35.62;102087.84;4993111;28;97432;-84
2021/06/13 10:36:22;;;;;;;;;;;;;;;22.20;34.72;102095.72;4997403;28;100162;-84
2021/06/13 10:38:49;;;;;;;;;;;;;;;21.85;34.12;102097.91;4991678;28;99319;-82
2021/06/13 10:41:16;;;;;;;;;;;;;;;22.38;33.33;102099.97;4993663;28;96782;-84
2021/06/13 10:43:44;;;;;;;;;;;;;;;21.99;33.49;102100.59;5011347;28;97396;-85
2021/06/13 10:46:14;;;;;;;;;;;;;;;22.66;32.40;102099.91;5000844;28;100017;-84
2021/06/13 10:48:45;;;;;;;;;;;;;;;22.76;32.32;102105.59;5015039;28;99909;-84
2021/06/13 10:51:26;;;;;;;;;;;;;;;21.36;34.62;102095.47;5002504;28;97236;-85
2021/06/13 10:53:53;;;;;;;;;;;;;;;22.19;33.15;102105.63;5004284;28;97847;-84
2021/06/13 10:56:23;;;;;;;;;;;;;;;21.58;33.95;102095.06;5004906;28;99048;-84
2021/06/13 10:58:53;;;;;;;;;;;;;;;20.99;35.34;102098.56;4998952;28;101291;-83
2021/06/13 11:01:25;;;;;;;;;;;;;;;20.66;36.26;102101.34;4998748;28;96773;-82
2021/06/13 11:03:59;;;;;;;;;;;;;;;20.75;36.47;102110.69;4991595;28;98686;-83
2021/06/13 11:06:40;;;;;;;;;;;;;;;20.84;36.13;102111.03;5002990;28;98433;-85
2021/06/13 11:09:08;;;;;;;;;;;;;;;20.83;36.15;102120.03;5005975;28;98964;-83
2021/06/13 11:11:35;;;;;;;;;;;;;;;21.70;34.77;102123.91;5165754;22;98466;-84
2021/06/13 11:14:21;;;;;;;;;;;;;;;21.47;35.72;102119.03;5013970;28;96707;-85
2021/06/13 11:16:49;;;;;;;;;;;;;;;22.13;34.84;102118.59;5013786;28;98311;-84
2021/06/13 11:19:26;;;;;;;;;;;;;;;22.57;34.20;102121.19;5018419;28;97865;-84
2021/06/13 11:22:11;;;;;;;;;;;;;;;22.86;33.72;102113.94;5029034;28;96918;-84
2021/06/13 11:24:45;;;;;;;;;;;;;;;22.23;34.87;102133.22;5016057;28;96845;-84
2021/06/13 11:27:12;;;;;;;;;;;;;;;22.73;33.90;102126.47;5024729;28;99525;-84
2021/06/13 11:29:55;;;;;;;;;;;;;;;22.57;33.45;102129.28;5017044;28;99515;-86
2021/06/13 11:32:54;;;;;;;;;;;;;;;22.30;33.70;102134.59;5015012;28;96602;-85
2021/06/13 11:35:27;;;;;;;;;;;;;;;23.34;31.70;102116.06;5021137;28;96806;-86
2021/06/13 11:38:13;;;;;;;;;;;;;;;23.09;32.22;102124.09;5013383;28;99815;-83
2021/06/13 11:40:48;;;;;;;;;;;;;;;23.59;31.42;102130.63;4983096;28;98993;-86
2021/06/13 11:46:00;;;;;;;;;;;;;;;23.67;30.81;102144.47;5011201;28;96552;-88
2021/06/13 11:48:34;;;;;;;;;;;;;;;22.87;31.78;102126.44;5008618;28;98809;-83
2021/06/13 11:53:59;;;;;;;;;;;;;;;22.09;33.08;102130.53;5012962;28;96679;-87
2021/06/13 11:56:40;;;;;;;;;;;;;;;21.92;33.76;102130.69;5010918;28;96480;-87
2021/06/13 11:59:10;;;;;;;;;;;;;;;22.98;32.09;102129.28;5014373;28;98635;-88
2021/06/13 12:01:42;;;;;;;;;;;;;;;23.68;30.74;102130.00;5016032;28;100147;-87
2021/06/13 12:04:14;;;;;;;;;;;;;;;24.17;30.27;102133.69;4994127;28;96805;-86
2021/06/13 12:06:43;;;;;;;;;;;;;;;24.29;29.51;102128.41;5011771;28;96160;-85
2021/06/13 12:09:11;;;;;;;;;;;;;;;24.19;29.25;102136.31;4994945;28;99741;-84
2021/06/13 12:11:41;;;;;;;;;;;;;;;23.53;30.29;102136.44;5015307;28;98491;-84
2021/06/13 12:14:21;;;;;;;;;;;;;;;22.58;31.93;102126.47;5010029;28;96844;-85
2021/06/13 12:16:48;;;;;;;;;;;;;;;22.74;32.20;102130.91;4997980;28;97327;-82
2021/06/13 12:19:26;;;;;;;;;;;;;;;22.73;32.46;102135.44;4993228;28;99559;-83
2021/06/13 12:21:53;;;;;;;;;;;;;;;22.72;32.00;102127.41;5006621;28;99505;-85
2021/06/13 12:24:34;;;;;;;;;;;;;;;22.31;33.00;102122.00;4987558;28;96809;-84
2021/06/13 12:27:24;;;;;;;;;;;;;;;22.48;32.93;102128.03;5004035;28;96726;-85
2021/06/13 12:29:51;;;;;;;;;;;;;;;22.91;31.85;102122.56;5005988;28;98924;-84
2021/06/13 12:32:18;;;;;;;;;;;;;;;23.72;30.57;102118.03;5006253;28;100069;-83
2021/06/13 12:34:52;;;;;;;;;;;;;;;22.99;31.84;102131.03;4996690;28;96676;-84
2021/06/13 12:37:19;;;;;;;;;;;;;;;24.26;29.78;102124.13;4995352;28;96867;-84
2021/06/13 12:39:54;;;;;;;;;;;;;;;24.53;29.18;102123.97;4994418;28;99960;-85
2021/06/13 12:42:21;;;;;;;;;;;;;;;24.58;28.91;102133.47;4994032;28;100575;-84
2021/06/13 12:44:59;;;;;;;;;;;;;;;24.65;27.44;102133.88;4999457;28;97538;-85
2021/06/13 12:47:26;;;;;;;;;;;;;;;23.74;29.71;102130.44;4978847;28;97292;-84
2021/06/13 12:49:57;;;;;;;;;;;;;;;22.88;31.38;102134.44;4996233;28;100685;-84
2021/06/13 12:52:23;;;;;;;;;;;;;;;23.73;30.29;102130.53;4989381;28;99230;-84
2021/06/13 12:54:58;;;;;;;;;;;;;;;23.45;30.42;102120.72;4979356;28;97280;-85
2021/06/13 12:57:25;;;;;;;;;;;;;;;24.14;29.00;102133.94;4982554;28;97566;-85
2021/06/13 13:03:03;;;;;;;;;;;;;;;25.08;27.61;102130.75;4974626;28;98862;-84